Bei Facebook empfehlenBei Twitter postenGoogle plusPinterest

Das Wetter im Erzgebirge am 21.12.2015

Wetter und Klima am 21.12.2015 Holzhau im Erzgebirge (630m ü.NN)
Letzte gemessene Temperatur und Uhrzeit der Messung23:45:00 Uhr6.40 °C
Temperatur (Maximum / Höchstwert) und Uhrzeit der Messung13:00:00 Uhr7.10 °C
Temperatur (Minimum / Tiefstwert) und Uhrzeit der Messung00:00:001.70 °C
Errechneter Absolutwert der Temperaturschwankungen zwischen Tmin und Tmax des Tages5.40 K
Errechnete Tagesmitteltemperatur4.55625 °C
Gesamt - Niederschlag des Tages (in flüssiger Form)2.07 Liter / m²
Luftdruck (Maximum / Höchstwert) und Zeitpunkt der Messung11:30:00 Uhr1019.40 hPa
Luftdruck (Minimum / Tiefstwert) und Zeitpunkt der Messung23:15:00 Uhr1017.60 hPa
Errechneter Absolutwert der Luftdruckschwankungen des Tages1.80 hPa
Höchste gemessene Windgeschwindigkeit und Uhrzeit der Messung23:00:00 Uhr183.60 km/h
Errechnete Windhäufigkeit in Relation zu den Messwerten des Tages43.75000 %
Niedrigste Windkühle (Windchill) und Zeitpunkt der Messung23:00:00 Uhr-4.00 °C
Taupunkt (Maximum / Höchstwert) und Uhrzeit der Messung13:00:00 Uhr6.80 °C
Taupunkt (Minimum / Tiefstwert) und Uhrzeit der Messung00:00:001.10 °C
Anzahl der automatisch eingelesenen Messwerte 96

Detaillierte Wetter- und Klima- Messwerte für den 21.12.2015 in Holzhau im Erzgebirge (630m ü.NN)
ZeitTemperaturLuftdruckRel. LuftfeuchteWindWindrichtungWindchillTaupunktNiederschlag l/m²
23:45:006.40 °C1017.70 hPa89.00 %3.96 km/hWNW6.40 °C4.70 °C2.07
23:30:006.20 °C1017.70 hPa89.00 %4.50 °C2.07
23:15:006.10 °C1017.60 hPa89.00 %10.44 km/hWSW3.90 °C4.40 °C2.07
23:00:005.90 °C1017.80 hPa90.00 %183.60 km/hWNW-4.00 °C4.40 °C2.07
22:45:005.90 °C1017.70 hPa90.00 %4.40 °C2.07
22:30:005.80 °C1017.80 hPa91.00 %1.80 km/hWSW5.80 °C4.40 °C2.07
22:15:005.60 °C1017.80 hPa91.00 %4.20 °C2.07
22:00:005.40 °C1018.00 hPa91.00 %5.76 km/hSW4.30 °C4.10 °C2.07
21:45:005.10 °C1018.30 hPa92.00 %3.90 °C2.07
21:30:005.10 °C1018.60 hPa92.00 %3.90 °C2.07
21:15:005.20 °C1018.60 hPa92.00 %3.60 km/hWNW5.20 °C4.00 °C2.07
21:00:005.20 °C1018.70 hPa92.00 %5.76 km/hW4.00 °C4.00 °C2.07
20:45:004.90 °C1018.80 hPa92.00 %5.76 km/hWNW3.70 °C3.70 °C2.07
20:30:005.10 °C1018.60 hPa93.00 %23.40 km/hSW0.80 °C4.10 °C2.07
20:15:005.20 °C1018.60 hPa93.00 %4.32 km/hW5.20 °C4.20 °C2.07
20:00:005.50 °C1018.70 hPa93.00 %8.28 km/hSW3.70 °C4.50 °C2.07
19:45:005.40 °C1018.80 hPa93.00 %10.44 km/hSW3.00 °C4.40 °C2.07
19:30:005.50 °C1019.00 hPa94.00 %18.00 km/hSW1.90 °C4.60 °C2.07
19:15:005.40 °C1019.00 hPa94.00 %20.52 km/hSW1.50 °C4.50 °C2.07
19:00:005.30 °C1018.90 hPa95.00 %5.04 km/hW4.40 °C4.60 °C2.07
18:45:005.10 °C1019.10 hPa94.00 %9.36 km/hSSW2.90 °C4.20 °C2.07
18:30:004.90 °C1019.00 hPa94.00 %9.72 km/hSW2.60 °C4.00 °C2.07
18:15:004.80 °C1019.00 hPa95.00 %1.08 km/hSW4.80 °C4.10 °C2.07
18:00:004.80 °C1019.10 hPa95.00 %4.10 °C2.07
17:45:004.80 °C1019.00 hPa95.00 %4.10 °C2.07
17:30:004.90 °C1018.90 hPa95.00 %4.20 °C2.07
17:15:005.10 °C1019.00 hPa95.00 %4.40 °C2.07
17:00:005.40 °C1018.80 hPa95.00 %3.60 km/hSW5.40 °C4.70 °C2.07
16:45:005.60 °C1018.70 hPa95.00 %4.90 °C2.07
16:30:005.60 °C1018.60 hPa95.00 %5.76 km/hSSW4.50 °C4.90 °C2.07
16:15:005.60 °C1018.50 hPa95.00 %4.90 °C2.07
16:00:005.60 °C1018.40 hPa96.00 %3.24 km/hWNW5.60 °C5.00 °C2.07
15:45:005.80 °C1018.60 hPa96.00 %7.56 km/hWNW4.20 °C5.20 °C2.07
15:30:005.80 °C1018.40 hPa96.00 %3.96 km/hSSW5.80 °C5.20 °C2.07
15:15:005.90 °C1018.60 hPa96.00 %6.84 km/hWNW4.50 °C5.30 °C2.07
15:00:006.10 °C1018.50 hPa96.00 %11.16 km/hW3.70 °C5.50 °C2.07
14:45:006.20 °C1018.60 hPa96.00 %5.60 °C2.07
14:30:006.30 °C1018.40 hPa96.00 %8.28 km/hWSW4.60 °C5.70 °C2.07
14:15:006.50 °C1018.40 hPa97.00 %6.10 °C2.07
14:00:006.70 °C1018.40 hPa97.00 %6.30 °C2.07
13:45:006.80 °C1018.30 hPa97.00 %6.40 °C2.07
13:30:006.90 °C1018.10 hPa98.00 %6.60 °C2.07
13:15:007.00 °C1018.60 hPa98.00 %6.12 km/hWNW6.00 °C6.70 °C2.07
13:00:007.10 °C1018.50 hPa98.00 %6.80 °C2.07
12:45:006.90 °C1018.50 hPa98.00 %5.04 km/hSW6.20 °C6.60 °C2.07
12:30:006.90 °C1018.60 hPa97.00 %5.04 km/hW6.20 °C6.50 °C2.07
12:15:006.60 °C1018.90 hPa97.00 %6.20 °C1.55
12:00:006.40 °C1019.10 hPa97.00 %3.24 km/hSW6.40 °C6.00 °C1.55
11:45:006.40 °C1019.30 hPa97.00 %6.00 °C1.55
11:30:006.30 °C1019.40 hPa97.00 %5.90 °C1.55
11:15:005.80 °C1019.30 hPa97.00 %6.48 km/hSSW4.50 °C5.40 °C1.55
11:00:005.30 °C1019.00 hPa97.00 %4.90 °C1.55
10:45:005.10 °C1018.70 hPa97.00 %4.70 °C1.55
10:30:004.60 °C1018.80 hPa97.00 %4.20 °C1.55
10:15:003.90 °C1018.60 hPa97.00 %3.50 °C1.55
10:00:003.40 °C1018.70 hPa97.00 %3.00 °C1.55
09:45:003.30 °C1018.80 hPa97.00 %2.90 °C1.03
09:30:003.30 °C1019.00 hPa97.00 %2.90 °C1.03
09:15:003.40 °C1018.80 hPa97.00 %1.08 km/hSO3.40 °C3.00 °C1.03
09:00:003.40 °C1018.70 hPa97.00 %2.16 km/hSO3.40 °C3.00 °C1.03
08:45:003.40 °C1018.70 hPa97.00 %3.00 °C0.51
08:30:003.40 °C1018.60 hPa97.00 %3.00 °C0.51
08:15:003.60 °C1018.40 hPa97.00 %3.20 °C0.51
08:00:004.10 °C1018.60 hPa97.00 %3.70 °C0.51
07:45:004.40 °C1018.20 hPa97.00 %4.00 °C0.51
07:30:004.50 °C1018.40 hPa97.00 %4.10 °C 
07:15:004.80 °C1018.40 hPa97.00 %4.40 °C 
07:00:004.50 °C1018.50 hPa97.00 %2.52 km/hSO4.50 °C4.10 °C 
06:45:004.50 °C1018.30 hPa97.00 %4.10 °C 
06:30:004.50 °C1018.30 hPa97.00 %4.10 °C 
06:15:004.20 °C1018.40 hPa97.00 %5.40 km/hOSO3.00 °C3.80 °C 
06:00:003.90 °C1018.40 hPa97.00 %3.60 km/hOSO3.90 °C3.50 °C 
05:45:003.60 °C1018.50 hPa97.00 %3.20 °C 
05:30:003.40 °C1018.30 hPa97.00 %3.00 °C 
05:15:003.40 °C1018.40 hPa97.00 %3.00 °C 
05:00:003.40 °C1018.50 hPa96.00 %2.80 °C 
04:45:003.20 °C1018.60 hPa96.00 %2.60 °C 
04:30:003.00 °C1018.60 hPa96.00 %2.40 °C 
04:15:002.90 °C1018.60 hPa96.00 %2.30 °C 
04:00:002.80 °C1018.60 hPa96.00 %1.44 km/hOSO2.80 °C2.20 °C 
03:45:002.50 °C1018.70 hPa96.00 %7.20 km/hOSO0.40 °C1.90 °C 
03:30:002.20 °C1018.70 hPa96.00 %1.60 °C 
03:15:001.90 °C1018.70 hPa96.00 %1.30 °C 
03:00:001.90 °C1018.90 hPa96.00 %2.52 km/hOSO1.90 °C1.30 °C 
02:45:001.80 °C1018.90 hPa96.00 %5.76 km/hNO0.10 °C1.20 °C 
02:30:001.80 °C1018.70 hPa96.00 %1.20 °C 
02:15:001.80 °C1018.70 hPa96.00 %1.20 °C 
02:00:001.90 °C1018.50 hPa96.00 %1.30 °C 
01:45:002.10 °C1018.60 hPa96.00 %1.50 °C 
01:30:002.10 °C1018.60 hPa96.00 %1.80 km/hNO2.10 °C1.50 °C 
01:15:002.10 °C1018.60 hPa96.00 %2.88 km/hSO2.10 °C1.50 °C 
01:00:002.10 °C1018.60 hPa96.00 %1.50 °C 
00:45:001.90 °C1018.60 hPa96.00 %1.30 °C 
00:30:001.80 °C1018.60 hPa96.00 %1.20 °C 
00:15:001.80 °C1018.60 hPa96.00 %1.20 °C 
00:00:001.70 °C1018.70 hPa96.00 %1.10 °C 

Permanenter Link zu dieser Seite: Wetter im Erzgebirge am 21.12.2015
Performance-Info: Die Erstellung der Seite / Statistik(en) / Tabelle(n) erforderte 5 Datenbankserver-Abfrage(n) und dauerte 104 Millisekunden. (Dieser Messwert ist von der Gesamt-Auslastung des Servers abhängig.)
Erzgebirge - Wetter | Erzgebirge - Wetter (Mobilgeräte) | Komplette Klimadatenbank